Terminal Aerodrome Forecast
Issued by NWS

Home | Current Version | Previous Version | Text Only | Print | Product List | Glossary On
Versions: 1 2 3 4 5 6 7 8 9 10 11 12 13 14 15 16 17 18 19 20 21 22 23 24 25 26 27
183
FTUS43 KLOT 160902 AAA
TAFORD
TAF AMD
KORD 160902Z 1609/1712 27012KT 6SM -SN BR BKN012 OVC025
     FM161000 28010KT 2SM -SN BKN015 OVC025
     FM161500 32012KT 6SM -SN BKN025
     FM161800 33010KT P6SM BKN035
     FM170000 32008KT P6SM SCT040=

USA.gov is the U.S. government's official web portal to all federal, state and local government web resources and services.